Terminal Aerodrome Forecast
Issued by NWS

Home | Current Version | Previous Version | Graphics & Text | Print | Product List | Glossary On
Versions: 1 2 3 4 5 6 7 8 9 10 11 12 13 14 15 16 17 18 19 20 21 22 23 24 25
000
FTUS43 KABR 052332
TAFATY
TAF
KATY 052332Z 0600/0624 14015G20KT P6SM OVC045
     FM060400 14011KT 5SM -SHRA BR SCT010 OVC025
     FM061400 15015G25KT 6SM -RA BR BKN010 OVC020=

USA.gov is the U.S. government's official web portal to all federal, state and local government web resources and services.